Weather observations for the past three days for
Laurens County Airport
Imperial (Metric)
Date Time (edt) Wind (mph) Vis. (mi.) Weather Sky Cond. Temperature (ºF) Relative Humidity Wind Chill (°F) Heat Index (°F) Pressure Precipitation (in)
Air Dwpt 6 hour altimeter (in) sea level (mb) 1 hr 3 hr 6 hr
Max. Min.
06 22:15 N 5 7.00 Light Rain SCT011 BKN040 OVC070 64.4 64.4 100% 29.97 0.0 0.03
06 21:55 N 3 1.75 Thunderstorm Rain SCT011 BKN024 OVC029 64.4 64.4 100% 29.95 0.0 0.33
06 21:35 Calm 7.00 Thunderstorm Heavy Rain SCT027 SCT041 OVC060 66.2 64.4 94% 29.95 0.0 0.09
06 21:15 N 7 10.00 Thunderstorm Light Rain OVC060 68 62.6 83% 29.91 0.0
06 20:55 N 8 G 18 10.00 Light Rain OVC060 69.8 64.4 83% 29.9 0.0
06 20:35 N 10 10.00 Light Rain OVC060 73.4 64.4 74% 29.89 0.0
06 20:15 N 3 10.00 Overcast OVC060 73.4 64.4 74% 29.9 0.0
06 19:55 Calm 10.00 Overcast OVC070 73.4 64.4 74% 29.88 0.0
06 19:35 Calm 10.00 Mostly Cloudy SCT070 BKN100 77 64.4 65% 79 29.87 0.0
06 18:55 Calm 10.00 Partly Cloudy SCT110 78.8 62.6 58% 80 29.87 0.0
06 18:35 Calm 10.00 Fair CLR 78.8 60.8 54% 80 29.88 0.0
06 18:15 Calm 10.00 Fair CLR 78.8 60.8 54% 80 29.89 0.0
06 17:35 Calm 10.00 Fair CLR 78.8 60.8 54% 80 29.9 0.0
06 17:15 W 3 10.00 Partly Cloudy SCT050 78.8 60.8 54% 80 29.91 0.0
06 16:55 SW 6 10.00 Partly Cloudy SCT045 SCT050 80.6 60.8 51% 81 29.91 0.0
06 16:35 SW 9 10.00 Partly Cloudy SCT043 80.6 60.8 51% 81 29.91 0.0
06 16:15 SW 12 10.00 Partly Cloudy SCT041 78.8 60.8 54% 80 29.92 0.0
06 15:55 W 9 10.00 Partly Cloudy SCT041 SCT047 78.8 60.8 54% 80 29.92 0.0
06 15:35 SW 13 G 17 10.00 Partly Cloudy SCT041 SCT047 78.8 60.8 54% 80 29.94 0.0
06 15:15 SW 5 G 16 10.00 Partly Cloudy SCT038 78.8 60.8 54% 80 29.95 0.0
06 14:55 SW 10 10.00 Fair CLR 77 60.8 57% 79 29.95 0.0
06 14:35 SW 10 G 16 10.00 Fair CLR 75.2 59 57% 78 29.95 0.0
06 14:15 SW 9 10.00 Fair CLR 75.2 60.8 61% 77 29.95 0.0
06 13:55 S 7 10.00 Partly Cloudy SCT060 73.4 60.8 65% 29.96 0.0
06 13:35 SW 8 10.00 Partly Cloudy SCT060 SCT085 71.6 59 65% 29.98 0.0
06 13:15 SW 10 G 17 10.00 Thunderstorm SCT048 BKN060 BKN085 71.6 59 65% 30 0.0
06 12:55 SW 10 G 18 10.00 Partly Cloudy SCT040 SCT048 73.4 60.8 65% 30 0.0
06 12:35 SW 10 G 18 10.00 Partly Cloudy SCT100 71.6 60.8 69% 30 0.0
06 12:15 SW 7 G 18 10.00 Mostly Cloudy SCT041 BKN090 69.8 59 69% 30 0.0
06 11:55 SW 10 G 16 10.00 Mostly Cloudy SCT041 BKN060 BKN090 69.8 59 69% 30 0.0
06 11:35 SW 12 G 20 10.00 Overcast SCT039 BKN060 OVC070 69.8 59 69% 30 0.0
06 11:15 SW 10 10.00 Mostly Cloudy BKN050 BKN070 BKN080 69.8 59 69% 30 0.0
06 10:55 SW 7 G 16 10.00 Mostly Cloudy SCT050 SCT065 BKN095 69.8 59 69% 29.99 0.0
06 10:35 SW 7 10.00 Partly Cloudy SCT048 SCT095 68 59 73% 29.97 0.0
06 10:15 SW 7 10.00 Partly Cloudy SCT095 66.2 59 78% 29.97 0.0
06 09:55 SW 6 10.00 Mostly Cloudy BKN085 64.4 57.2 78% 29.98 0.0
06 09:35 SW 8 10.00 Overcast OVC085 64.4 57.2 78% 29.99 0.0
06 09:15 SW 8 10.00 Overcast OVC085 62.6 55.4 77% 29.98 0.0
06 08:55 SW 8 10.00 Overcast OVC085 62.6 55.4 77% 29.98 0.0
06 08:35 SW 8 10.00 Mostly Cloudy BKN095 62.6 55.4 77% 29.97 0.0
06 07:55 S 7 10.00 Overcast OVC085 62.6 55.4 77% 29.97 0.0
06 07:35 SW 8 10.00 Mostly Cloudy BKN085 62.6 55.4 77% 29.97 0.0
06 07:15 SW 7 10.00 Partly Cloudy SCT085 60.8 55.4 83% 29.96 0.0
06 06:55 Calm 10.00 Fair CLR 60.8 53.6 77% 29.95 0.0
06 06:35 SW 7 10.00 Partly Cloudy SCT085 60.8 53.6 77% 29.94 0.0
06 06:15 S 9 10.00 Fair CLR 60.8 53.6 77% 29.94 0.0
06 05:55 S 8 10.00 Fair CLR 62.6 53.6 73% 29.93 0.0
06 05:35 S 10 10.00 Partly Cloudy SCT085 62.6 53.6 73% 29.94 0.0
06 05:15 S 9 10.00 Mostly Cloudy BKN085 62.6 53.6 73% 29.94 0.0
06 04:55 S 10 10.00 Overcast OVC085 62.6 53.6 73% 29.95 0.0
06 04:35 S 8 10.00 Overcast OVC085 62.6 53.6 73% 29.95 0.0
06 04:15 S 9 G 16 10.00 Overcast OVC085 62.6 53.6 73% 29.96 0.0
06 03:55 S 10 10.00 Overcast OVC085 62.6 53.6 73% 29.96 0.0
06 03:35 S 10 10.00 Overcast OVC085 62.6 53.6 73% 29.96 0.0
06 03:15 S 8 10.00 Overcast SCT075 OVC085 62.6 53.6 73% 29.97 0.0
06 02:55 S 9 10.00 Overcast SCT075 OVC085 62.6 53.6 73% 29.97 0.0
06 02:35 S 7 10.00 Mostly Cloudy SCT085 BKN090 62.6 53.6 73% 29.96 0.0
06 02:15 S 5 10.00 Fair CLR 62.6 53.6 73% 29.97 0.0
06 01:55 S 8 10.00 Fair CLR 64.4 53.6 68% 29.97 0.0
06 01:35 S 7 10.00 Fair CLR 64.4 53.6 68% 29.97 0.0
06 01:15 S 9 10.00 Fair CLR 64.4 53.6 68% 29.97 0.0
06 00:55 S 12 G 17 10.00 Fair CLR 64.4 53.6 68% 29.97 0.0
06 00:35 S 12 G 18 10.00 Fair CLR 66.2 53.6 64% 29.97 0.0
06 00:15 S 12 10.00 Fair CLR 66.2 53.6 64% 29.97 0.0
05 23:55 S 13 G 17 10.00 Fair CLR 68 53.6 60% 29.96 0.0
05 23:35 S 10 G 20 10.00 Fair CLR 68 53.6 60% 29.96 0.0
05 23:15 S 15 G 23 10.00 Fair CLR 69.8 51.8 53% 29.97 0.0
05 22:55 S 6 10.00 Fair CLR 69.8 50 50% 29.96 0.0
05 22:35 S 7 10.00 Fair CLR 69.8 50 50% 29.95 0.0
05 22:15 S 6 10.00 Partly Cloudy SCT120 69.8 50 50% 29.95 0.0
05 21:55 S 5 10.00 Partly Cloudy SCT120 69.8 50 50% 29.95 0.0
05 21:35 S 3 10.00 Fair CLR 69.8 50 50% 29.96 0.0
05 21:15 S 3 10.00 Fair CLR 69.8 50 50% 29.96 0.0
05 20:55 S 5 10.00 Fair CLR 71.6 50 47% 29.95 0.0
05 20:35 S 5 10.00 Partly Cloudy SCT075 71.6 50 47% 29.95 0.0
05 20:15 Calm 10.00 Partly Cloudy SCT075 71.6 50 47% 29.95 0.0
05 19:55 S 3 10.00 Fair CLR 73.4 48.2 41% 29.94 0.0
05 19:35 S 7 10.00 Fair CLR 77 46.4 34% 78 29.93 0.0
05 19:15 S 6 G 17 10.00 Fair CLR 77 46.4 34% 78 29.94 0.0
05 18:55 SW 9 G 17 10.00 Fair CLR 78.8 46.4 32% 79 29.94 0.0
05 18:35 S 8 10.00 Fair CLR 77 46.4 34% 78 29.94 0.0
05 18:15 SW 10 G 17 10.00 Fair CLR 78.8 46.4 32% 79 29.94 0.0
05 17:55 S 14 G 21 10.00 Partly Cloudy SCT075 78.8 44.6 30% 79 29.94 0.0
05 17:35 SW 12 10.00 Fair CLR 78.8 46.4 32% 79 29.95 0.0
05 17:15 SW 9 10.00 Fair CLR 78.8 44.6 30% 79 29.95 0.0
05 16:55 SW 10 G 16 10.00 Fair CLR 78.8 46.4 32% 79 29.95 0.0
05 16:35 SW 8 G 18 10.00 Fair CLR 78.8 46.4 32% 79 29.95 0.0
05 16:15 S 10 G 16 10.00 Partly Cloudy SCT075 78.8 46.4 32% 79 29.97 0.0
05 15:55 SW 8 10.00 Partly Cloudy SCT075 78.8 46.4 32% 79 29.98 0.0
05 15:35 SW 9 10.00 Partly Cloudy SCT075 78.8 46.4 32% 79 29.98 0.0
05 15:15 S 13 G 17 10.00 Partly Cloudy SCT075 78.8 46.4 32% 79 29.99 0.0
05 14:55 S 9 10.00 Partly Cloudy SCT070 78.8 46.4 32% 79 29.99 0.0
05 14:35 S 10 G 17 10.00 Partly Cloudy SCT070 77 44.6 32% 78 30 0.0
05 14:15 S 14 G 17 10.00 Partly Cloudy SCT070 78.8 46.4 32% 79 30.02 0.0
05 13:55 S 15 10.00 Fair CLR 77 44.6 32% 78 30.03 0.0
05 13:35 SW 15 G 20 10.00 Fair CLR 77 44.6 32% 78 30.03 0.0
05 12:55 SW 6 G 18 10.00 Fair CLR 75.2 44.6 34% 77 30.03 0.0
05 12:35 SW 10 G 17 10.00 Partly Cloudy SCT060 75.2 46.4 36% 77 30.03 0.0
05 12:15 S 7 10.00 Fair CLR 73.4 46.4 38% 30.05 0.0
05 11:55 SW 9 10.00 Fair CLR 73.4 50 44% 30.05 0.0
05 11:35 S 8 10.00 Fair CLR 73.4 50 44% 30.05 0.0
05 11:15 SW 6 10.00 Fair CLR 71.6 51.8 50% 30.05 0.0
05 10:55 SW 9 10.00 Fair CLR 69.8 51.8 53% 30.05 0.0
05 10:35 SW 9 10.00 Fair CLR 69.8 53.6 57% 30.04 0.0
05 10:15 SW 6 10.00 Fair CLR 68 53.6 60% 30.04 0.0
05 09:55 S 6 10.00 Fair CLR 64.4 53.6 68% 30.04 0.0
05 09:35 S 9 10.00 Fair CLR 64.4 53.6 68% 30.04 0.0
05 09:15 SW 7 10.00 Fair CLR 62.6 53.6 73% 30.03 0.0
05 08:35 SW 5 10.00 Fair CLR 59 51.8 77% 30.04 0.0
05 08:15 SW 6 10.00 Fair CLR 59 51.8 77% 30.03 0.0
05 07:55 Calm 10.00 Fair CLR 55.4 51.8 88% 30.02 0.0
05 07:15 SW 3 10.00 Fair CLR 51.8 50 94% 30.02 0.0
05 06:55 Calm 10.00 Fair CLR 51.8 50 94% 30.01 0.0
05 06:35 Calm 10.00 Fair CLR 51.8 50 94% 30.01 0.0
05 06:15 SW 5 10.00 Fair CLR 53.6 50 88% 30.01 0.0
05 05:55 SW 3 10.00 Fair CLR 53.6 50 88% 30.01 0.0
05 05:35 SW 3 10.00 Fair CLR 53.6 50 88% 30 0.0
05 05:15 S 6 10.00 Fair CLR 53.6 48.2 82% 30 0.0
05 04:55 S 6 10.00 Fair CLR 55.4 48.2 77% 30 0.0
05 04:35 S 7 10.00 Fair CLR 55.4 48.2 77% 30 0.0
05 04:15 S 7 10.00 Fair CLR 55.4 48.2 77% 30 0.0
05 03:55 S 7 10.00 Fair CLR 55.4 46.4 72% 30 0.0
05 03:35 S 7 10.00 Fair CLR 55.4 46.4 72% 30 0.0
05 03:15 S 8 10.00 Fair CLR 57.2 46.4 67% 29.99 0.0
05 02:55 S 7 10.00 Fair CLR 57.2 46.4 67% 29.99 0.0
05 02:35 S 8 10.00 Fair CLR 59 46.4 63% 29.99 0.0
05 02:15 S 7 10.00 Fair CLR 59 46.4 63% 29.99 0.0
05 01:55 S 8 10.00 Fair CLR 59 46.4 63% 29.99 0.0
05 01:35 S 7 10.00 Fair CLR 59 44.6 59% 30 0.0
05 01:15 S 8 10.00 Fair CLR 59 44.6 59% 30 0.0
05 00:55 S 6 10.00 Fair CLR 59 42.8 55% 30 0.0
05 00:35 S 6 10.00 Fair CLR 60.8 42.8 52% 30 0.0
05 00:15 Calm 10.00 Fair CLR 59 44.6 59% 30 0.0
04 23:55 S 5 10.00 Fair CLR 60.8 42.8 52% 30 0.0
04 23:35 S 5 10.00 Fair CLR 60.8 44.6 55% 30 0.0
04 23:15 S 6 10.00 Fair CLR 60.8 44.6 55% 30 0.0
04 22:55 S 5 10.00 Fair CLR 62.6 44.6 52% 30 0.0
04 22:35 S 5 10.00 Fair CLR 62.6 42.8 49% 30 0.0
04 22:15 S 6 10.00 Fair CLR 64.4 42.8 46% 30 0.0
04 21:55 S 6 10.00 Fair CLR 64.4 42.8 46% 30 0.0
04 21:35 S 7 10.00 Fair CLR 66.2 42.8 43% 29.99 0.0
04 21:15 S 5 10.00 Fair CLR 66.2 42.8 43% 29.99 0.0
04 20:55 S 7 10.00 Fair CLR 64.4 44.6 49% 29.98 0.0
04 20:35 Calm 10.00 Fair CLR 66.2 46.4 49% 29.97 0.0
04 20:15 Calm 10.00 Fair CLR 68 44.6 43% 29.97 0.0
04 19:55 S 3 10.00 Fair CLR 69.8 44.6 40% 29.96 0.0
04 19:35 S 6 10.00 Fair CLR 71.6 44.6 38% 29.96 0.0
04 19:15 S 7 10.00 Fair CLR 73.4 42.8 33% 29.96 0.0
04 18:55 Calm 10.00 Fair CLR 73.4 42.8 33% 29.95 0.0
04 18:35 S 3 10.00 Fair CLR 75.2 41 29% 77 29.96 0.0
04 18:15 SW 6 10.00 Fair CLR 77 39.2 26% 77 29.96 0.0
04 17:55 SW 5 10.00 Fair CLR 77 37.4 24% 77 29.96 0.0
04 17:35 SW 5 10.00 Fair CLR 77 37.4 24% 77 29.96 0.0
04 17:15 SW 5 10.00 Fair CLR 77 41 28% 78 29.96 0.0
04 16:55 SW 6 10.00 Fair CLR 77 41 28% 78 29.96 0.0
04 16:35 S 8 10.00 Fair CLR 77 39.2 26% 77 29.96 0.0
04 16:15 S 5 10.00 Fair CLR 77 37.4 24% 77 29.97 0.0
04 15:55 S 3 10.00 Fair CLR 77 42.8 30% 78 29.98 0.0
04 15:35 SW 5 10.00 Fair CLR 77 39.2 26% 77 29.99 0.0
04 15:15 Calm 10.00 Fair CLR 75.2 37.4 25% 77 30 0.0
04 14:55 SW 8 10.00 Fair CLR 75.2 37.4 25% 77 30 0.0
04 14:35 SW 5 10.00 Fair CLR 73.4 41 31% 30.01 0.0
04 14:15 S 6 10.00 Fair CLR 73.4 39.2 29% 30.01 0.0
04 13:55 SW 5 10.00 Fair CLR 73.4 39.2 29% 30.02 0.0
04 13:35 S 3 10.00 Fair CLR 71.6 41 33% 30.03 0.0
04 13:15 SW 5 10.00 Fair CLR 71.6 39.2 31% 30.03 0.0
04 12:55 Calm 10.00 Fair CLR 71.6 42.8 36% 30.04 0.0
04 12:35 Calm 10.00 Fair CLR 69.8 41 35% 30.05 0.0
04 12:15 NW 3 10.00 Fair CLR 69.8 42.8 38% 30.05 0.0
04 11:55 Calm 10.00 Fair CLR 68 41 38% 30.06 0.0
04 11:35 Calm 10.00 Fair CLR 68 42.8 40% 30.06 0.0
04 11:15 Calm 10.00 Fair CLR 68 42.8 40% 30.06 0.0
04 10:55 Calm 10.00 Fair CLR 66.2 42.8 43% 30.06 0.0
04 10:35 SW 3 10.00 Fair CLR 64.4 42.8 46% 30.06 0.0
04 10:15 W 5 10.00 Fair CLR 62.6 44.6 52% 30.07 0.0
04 09:55 Calm 10.00 Fair CLR 60.8 44.6 55% 30.07 0.0
04 09:35 Calm 10.00 Fair CLR 59 44.6 59% 30.07 0.0
04 09:15 SW 5 10.00 Fair CLR 55.4 44.6 67% 30.06 0.0
04 08:55 Calm 10.00 Fair CLR 53.6 44.6 72% 30.05 0.0
04 08:35 SW 5 10.00 Fair CLR 51.8 42.8 72% 30.05 0.0
04 08:15 Calm 10.00 Fair CLR 50 42.8 76% 30.05 0.0
04 07:55 SW 5 10.00 Fair CLR 50 42.8 76% 49 30.05 0.0
04 07:35 SW 3 10.00 Fair CLR 46.4 42.8 87% 30.05 0.0
04 07:15 SW 5 10.00 Fair CLR 46.4 41 82% 45 30.05 0.0
04 06:55 SW 5 10.00 Fair CLR 44.6 41 87% 43 30.04 0.0
04 06:35 Calm 10.00 Fair CLR 44.6 41 87% 30.04 0.0
04 06:15 Calm 10.00 Fair CLR 44.6 42.8 93% 30.05 0.0
04 05:55 Calm 10.00 Fair CLR 44.6 42.8 93% 30.05 0.0
04 05:35 SW 3 10.00 Fair CLR 46.4 42.8 87% 30.04 0.0
04 05:15 Calm 10.00 Fair CLR 44.6 42.8 93% 30.05 0.0
04 04:55 Calm 10.00 Fair CLR 46.4 42.8 87% 30.04 0.0
04 04:35 SW 3 10.00 Fair CLR 46.4 42.8 87% 30.04 0.0
04 04:15 SW 3 10.00 Fair CLR 48.2 41 76% 30.04 0.0
04 03:55 SW 3 10.00 Fair CLR 48.2 42.8 82% 30.04 0.0
04 03:35 Calm 10.00 Fair CLR 46.4 42.8 87% 30.04 0.0
04 03:15 Calm 10.00 Fair CLR 46.4 42.8 87% 30.03 0.0
04 02:55 Calm 10.00 Fair CLR 48.2 42.8 82% 30.04 0.0
04 02:35 Calm 10.00 Fair CLR 50 42.8 76% 30.04 0.0
04 02:15 Calm 10.00 Fair CLR 50 42.8 76% 30.05 0.0
04 01:55 Calm 10.00 Fair CLR 51.8 42.8 72% 30.04 0.0
04 01:35 S 5 10.00 Fair CLR 50 42.8 76% 49 30.04 0.0
04 01:15 Calm 10.00 Fair CLR 50 42.8 76% 30.05 0.0
04 00:55 Calm 10.00 Fair CLR 50 42.8 76% 30.05 0.0
04 00:35 Calm 10.00 Fair CLR 51.8 42.8 72% 30.06 0.0
04 00:15 SW 3 10.00 Fair CLR 53.6 42.8 67% 30.05 0.0
03 23:55 Calm 10.00 Fair CLR 53.6 42.8 67% 30.05 0.0
03 23:35 S 3 10.00 Fair CLR 55.4 42.8 63% 30.05 0.0
03 23:15 S 5 10.00 Fair CLR 55.4 41 59% 30.05 0.0
03 22:55 Calm 10.00 Fair CLR 55.4 41 59% 30.05 0.0
Date Time (edt) Wind (mph) Vis. (mi.) Weather Sky Cond. Air Dwpt Max. Min. Relative Humidity Wind Chill (°F) Heat Index (°F) altimeter (in) sea level (mb) 1 hr 3 hr 6 hr
6 hour
Temperature (ºF) Pressure Precipitation (in)